BGKK

Kulusuk Airport

Kulusuk, Greenland
METAR BGKK 250550Z AUTO 25002KT 1100NDV BR FEW003/// OVC016/// 02/01 Q0997
Observed Flight Rules
Jun-25 @ 05:50 UTC (34 minutes ago)
Wind Clouds Conditions
250° at 2 knots
  • Few at 300' AGL
  • Overcast at 1,600' AGL
  • Mist
Temperatures Readings
Current 2°C / 36°F
Dewpoint 1°C / 34°F
Humidity 93%
Altimeter 29.44" Hg
Pressure 997 hPa
Elevation 34
METAR BGKK 250550Z AUTO 25002KT 1100NDV BR FEW003/// OVC016/// 02/01 Q0997
Observed Flight Rules
Jun-25 @ 05:50 UTC
(34 minutes ago)
Wind
250° at 2 knots
Clouds
  • Few at 300' AGL
  • Overcast at 1,600' AGL
Conditions
  • Mist
Temperature Dewpoint
2°C / 36°F 1°C / 34°F
Humidity Altimeter Pressure
93% 29.44" Hg 997 hPa